createdAt,value
2018-07-30T00:02:33.662Z,47.67
2018-07-30T00:07:37.697Z,47.61
2018-07-30T00:12:41.679Z,47.26
2018-07-30T00:17:45.424Z,47.55
2018-07-30T00:22:49.434Z,47.76
2018-07-30T00:27:53.529Z,47.79
2018-07-30T00:32:57.574Z,47.62
2018-07-30T00:38:01.441Z,47.51
2018-07-30T00:43:05.710Z,47.28
2018-07-30T00:48:09.889Z,47.60
2018-07-30T00:53:14.313Z,47.72
2018-07-30T00:58:18.603Z,47.86
2018-07-30T01:03:23.711Z,47.75
2018-07-30T01:08:27.474Z,47.55
2018-07-30T01:13:31.404Z,47.79
2018-07-30T01:18:35.265Z,47.80
2018-07-30T01:23:39.181Z,47.27
2018-07-30T01:28:43.562Z,47.61
2018-07-30T01:33:47.398Z,47.87
2018-07-30T01:38:51.815Z,47.42
2018-07-30T01:43:55.584Z,47.90
2018-07-30T01:48:59.404Z,48.15
2018-07-30T01:54:03.304Z,47.96
2018-07-30T01:59:07.291Z,47.85
2018-07-30T02:04:11.299Z,48.14
2018-07-30T02:09:15.178Z,47.68
2018-07-30T02:14:19.228Z,47.83
2018-07-30T02:19:23.021Z,47.87
2018-07-30T02:24:26.977Z,48.14
2018-07-30T02:29:30.837Z,48.10
2018-07-30T02:34:34.761Z,48.40
2018-07-30T02:39:38.589Z,48.07
2018-07-30T02:44:42.516Z,47.96
2018-07-30T02:49:48.512Z,47.60
2018-07-30T02:54:52.447Z,48.19
2018-07-30T02:59:56.301Z,47.62
2018-07-30T03:05:03.834Z,48.51
2018-07-30T03:10:08.351Z,47.79
2018-07-30T03:15:12.203Z,48.15
2018-07-30T03:20:17.240Z,48.03
2018-07-30T03:25:21.096Z,47.87
2018-07-30T03:30:24.938Z,48.17
2018-07-30T03:35:28.752Z,47.23
2018-07-30T03:40:32.498Z,47.67
2018-07-30T03:45:36.248Z,46.46
2018-07-30T03:50:40.000Z,45.43
2018-07-30T03:55:43.761Z,45.45
2018-07-30T04:00:47.453Z,45.71
2018-07-30T04:05:51.473Z,46.17
2018-07-30T04:10:56.968Z,48.94
2018-07-30T04:16:00.984Z,50.31
2018-07-30T04:21:04.881Z,50.89
2018-07-30T04:26:08.730Z,51.29
2018-07-30T04:31:12.660Z,52.64
2018-07-30T04:36:16.472Z,53.31
2018-07-30T04:41:20.299Z,53.15
2018-07-30T04:46:24.537Z,52.11
2018-07-30T04:51:28.509Z,51.21
2018-07-30T04:56:32.368Z,51.09
2018-07-30T05:01:36.097Z,49.93
2018-07-30T05:06:39.794Z,50.00
2018-07-30T05:11:43.485Z,49.41
2018-07-30T05:16:48.210Z,49.72
2018-07-30T05:21:51.945Z,49.56
2018-07-30T05:26:55.600Z,49.79
2018-07-30T05:31:59.307Z,50.27
2018-07-30T05:37:03.050Z,49.84
2018-07-30T05:42:06.787Z,48.99
2018-07-30T05:47:10.423Z,49.73
2018-07-30T05:52:14.055Z,49.44
2018-07-30T05:57:17.705Z,49.20
2018-07-30T06:02:21.328Z,49.61
2018-07-30T06:07:24.943Z,49.33
2018-07-30T06:12:28.669Z,49.07
2018-07-30T06:17:32.289Z,48.78
2018-07-30T06:22:36.114Z,48.83
2018-07-30T06:27:41.829Z,49.01
2018-07-30T06:32:45.503Z,48.42
2018-07-30T06:37:49.182Z,48.75
2018-07-30T06:42:52.880Z,48.41
2018-07-30T06:47:57.356Z,48.38
2018-07-30T06:53:01.103Z,47.94
2018-07-30T06:58:05.049Z,47.70
2018-07-30T07:03:08.991Z,47.63
2018-07-30T07:08:12.884Z,46.78
2018-07-30T07:13:17.306Z,47.08
2018-07-30T07:18:21.595Z,47.11
2018-07-30T07:23:29.391Z,46.91
2018-07-30T07:28:33.186Z,47.24
2018-07-30T07:33:36.894Z,47.14
2018-07-30T07:38:42.275Z,47.04
2018-07-30T07:43:45.952Z,46.92
2018-07-30T07:48:49.805Z,47.27
2018-07-30T07:53:53.525Z,47.16
2018-07-30T07:58:57.506Z,47.03
2018-07-30T08:04:01.266Z,46.40
2018-07-30T08:09:07.201Z,46.34
2018-07-30T08:14:10.874Z,46.93
2018-07-30T08:19:14.880Z,46.53
2018-07-30T08:24:19.679Z,47.24
2018-07-30T08:29:24.917Z,47.08
2018-07-30T08:34:28.664Z,47.24
2018-07-30T08:39:32.573Z,47.46
2018-07-30T08:44:36.366Z,47.57
2018-07-30T08:49:40.241Z,47.50
2018-07-30T08:54:44.308Z,47.31
2018-07-30T08:59:48.101Z,47.27
2018-07-30T09:04:51.822Z,47.82
2018-07-30T09:09:55.577Z,47.63
2018-07-30T09:14:59.590Z,47.52
2018-07-30T09:20:06.198Z,47.77
2018-07-30T09:25:09.914Z,49.16
2018-07-30T09:30:13.558Z,49.53
2018-07-30T09:35:17.198Z,49.62
2018-07-30T09:40:20.822Z,50.31
2018-07-30T09:45:24.648Z,50.38
2018-07-30T09:50:28.540Z,50.36
2018-07-30T09:55:32.293Z,50.21
2018-07-30T10:01:16.158Z,50.66
2018-07-30T10:06:19.909Z,50.77
2018-07-30T10:11:23.495Z,51.01
2018-07-30T10:16:27.238Z,50.72
2018-07-30T10:21:30.923Z,50.62
2018-07-30T10:26:35.391Z,50.41
2018-07-30T10:31:39.080Z,50.54
2018-07-30T10:36:42.715Z,50.95
2018-07-30T10:41:46.364Z,51.61
2018-07-30T10:46:50.183Z,51.07
2018-07-30T10:51:53.875Z,50.19
2018-07-30T10:56:57.612Z,49.53
2018-07-30T11:02:01.520Z,48.30
2018-07-30T11:07:05.212Z,47.79
2018-07-30T11:12:08.899Z,46.81
2018-07-30T11:17:12.667Z,46.75
2018-07-30T11:22:16.404Z,46.69
2018-07-30T11:27:20.055Z,45.84
2018-07-30T11:32:23.827Z,45.85
2018-07-30T11:37:28.311Z,45.36
2018-07-30T11:42:31.986Z,45.49
2018-07-30T11:47:35.717Z,45.34
2018-07-30T11:52:39.423Z,45.59
2018-07-30T11:57:43.128Z,45.15
2018-07-30T12:02:46.772Z,45.44
2018-07-30T12:07:50.500Z,45.20
2018-07-30T12:12:54.697Z,45.03
2018-07-30T12:17:58.411Z,44.90
2018-07-30T12:23:02.118Z,45.04
2018-07-30T12:28:06.065Z,44.91
2018-07-30T12:33:10.068Z,44.63
2018-07-30T12:38:13.872Z,44.71
2018-07-30T12:43:17.649Z,44.60
2018-07-30T12:48:21.389Z,45.02
2018-07-30T12:53:26.109Z,44.89
2018-07-30T12:58:29.802Z,44.32
2018-07-30T13:03:33.542Z,44.50
2018-07-30T13:08:37.203Z,45.42
2018-07-30T13:13:41.015Z,45.67
2018-07-30T13:18:44.747Z,46.46
2018-07-30T13:23:48.888Z,46.25
2018-07-30T13:28:52.547Z,47.64
2018-07-30T13:33:56.220Z,48.55
2018-07-30T13:39:00.046Z,48.34
2018-07-30T13:44:04.106Z,48.13
2018-07-30T13:49:08.149Z,48.06
2018-07-30T13:54:11.952Z,48.45
2018-07-30T13:59:16.930Z,48.42
2018-07-30T14:04:21.268Z,48.76
2018-07-30T14:09:24.952Z,48.51
2018-07-30T14:14:28.795Z,48.71
2018-07-30T14:19:33.059Z,48.79
2018-07-30T14:24:36.885Z,49.71
2018-07-30T14:29:40.646Z,49.38
2018-07-30T14:34:44.321Z,49.57
2018-07-30T14:39:48.149Z,49.31
2018-07-30T14:44:51.842Z,49.24
2018-07-30T14:49:55.578Z,49.26
2018-07-30T14:55:04.077Z,49.10
2018-07-30T15:00:09.378Z,48.66
2018-07-30T15:05:13.243Z,48.61
2018-07-30T15:10:17.050Z,48.91
2018-07-30T15:15:20.709Z,48.85
2018-07-30T15:20:24.594Z,48.71
2018-07-30T15:25:28.527Z,48.50
2018-07-30T15:30:32.350Z,48.03
2018-07-30T15:35:35.998Z,48.58
2018-07-30T15:40:40.009Z,48.49
2018-07-30T15:45:43.977Z,48.19
2018-07-30T15:50:47.861Z,47.96
2018-07-30T15:55:52.791Z,48.39
2018-07-30T16:00:56.595Z,48.37
2018-07-30T16:06:00.500Z,48.34
2018-07-30T16:11:04.273Z,48.28
2018-07-30T16:16:08.856Z,48.19
2018-07-30T16:21:12.645Z,48.78
2018-07-30T16:26:16.464Z,50.06
2018-07-30T16:31:20.372Z,50.17
2018-07-30T16:36:24.210Z,50.19
2018-07-30T16:41:27.978Z,49.93
2018-07-30T16:46:31.825Z,50.27
2018-07-30T16:51:35.760Z,50.16
2018-07-30T16:56:39.816Z,49.81
2018-07-30T17:01:43.736Z,49.93
2018-07-30T17:06:47.635Z,49.53
2018-07-30T17:11:51.503Z,49.15
2018-07-30T17:16:55.346Z,49.33
2018-07-30T17:21:59.109Z,49.22
2018-07-30T17:27:02.830Z,48.90
2018-07-30T17:32:06.499Z,49.29
2018-07-30T17:37:10.410Z,49.23
2018-07-30T17:42:14.233Z,48.92
2018-07-30T17:47:18.170Z,49.38
2018-07-30T17:52:21.923Z,48.94
2018-07-30T17:57:26.013Z,49.27
2018-07-30T18:02:30.102Z,49.38
2018-07-30T18:07:33.860Z,49.14
2018-07-30T18:12:37.993Z,48.97
2018-07-30T18:17:42.027Z,49.45
2018-07-30T18:22:45.880Z,49.47
2018-07-30T18:27:50.197Z,49.61
2018-07-30T18:32:54.277Z,49.33
2018-07-30T18:37:58.179Z,49.51
2018-07-30T18:43:01.883Z,49.20
2018-07-30T18:48:05.922Z,48.62
2018-07-30T18:53:09.629Z,48.69
2018-07-30T18:58:14.001Z,48.98
2018-07-30T19:03:17.906Z,49.40
2018-07-30T19:08:21.625Z,48.59
2018-07-30T19:13:25.364Z,48.66
2018-07-30T19:18:29.066Z,49.19
2018-07-30T19:23:32.790Z,48.33
2018-07-30T19:28:36.446Z,49.21
2018-07-30T19:33:40.169Z,49.06
2018-07-30T19:38:44.009Z,49.41
2018-07-30T19:43:47.681Z,48.98
2018-07-30T19:48:51.464Z,49.28
2018-07-30T19:53:56.040Z,48.96
2018-07-30T19:58:59.921Z,49.89
2018-07-30T20:04:03.707Z,49.93
2018-07-30T20:09:10.261Z,49.20
2018-07-30T20:14:14.146Z,49.04
2018-07-30T20:19:17.822Z,49.46
2018-07-30T20:24:21.711Z,48.51
2018-07-30T20:29:25.823Z,48.32
2018-07-30T20:34:29.745Z,48.49
2018-07-30T20:39:33.634Z,48.22
2018-07-30T20:44:37.581Z,48.34
2018-07-30T20:49:41.490Z,47.19
2018-07-30T20:54:45.467Z,47.51
2018-07-30T20:59:49.418Z,46.92
2018-07-30T21:04:53.600Z,47.52
2018-07-30T21:09:57.614Z,46.83
2018-07-30T21:15:02.710Z,46.44
2018-07-30T21:20:06.746Z,46.62
2018-07-30T21:25:10.532Z,46.23
2018-07-30T21:30:14.268Z,45.54
2018-07-30T21:35:17.906Z,45.65
2018-07-30T21:40:21.683Z,45.61
2018-07-30T21:45:25.562Z,45.37
2018-07-30T21:50:29.222Z,45.24
2018-07-30T21:55:32.954Z,45.22
2018-07-30T22:00:36.635Z,44.92
2018-07-30T22:05:40.429Z,44.88
2018-07-30T22:10:44.122Z,44.88
2018-07-30T22:15:48.037Z,44.71
2018-07-30T22:20:51.730Z,44.98
2018-07-30T22:25:55.526Z,44.17
2018-07-30T22:30:59.226Z,44.87
2018-07-30T22:36:02.925Z,44.09
2018-07-30T22:41:06.671Z,44.17
2018-07-30T22:46:10.530Z,43.95
2018-07-30T22:51:14.434Z,43.92
2018-07-30T22:56:18.216Z,44.62
2018-07-30T23:01:21.882Z,43.94
2018-07-30T23:06:25.610Z,43.95
2018-07-30T23:11:29.346Z,43.83
2018-07-30T23:16:33.061Z,43.66
2018-07-30T23:21:36.803Z,43.40
2018-07-30T23:26:41.772Z,43.56
2018-07-30T23:31:45.456Z,43.94
2018-07-30T23:36:49.120Z,43.63
2018-07-30T23:41:52.797Z,43.58
2018-07-30T23:46:56.430Z,44.25
2018-07-30T23:52:00.105Z,43.86
2018-07-30T23:57:03.719Z,43.51
